createdAt,value
2018-08-06T00:00:28.775Z,2.27
2018-08-06T00:02:57.175Z,1.90
2018-08-06T00:05:25.318Z,2.00
2018-08-06T00:07:53.765Z,1.80
2018-08-06T00:10:23.676Z,2.40
2018-08-06T00:12:52.060Z,2.20
2018-08-06T00:15:20.395Z,2.30
2018-08-06T00:17:48.505Z,1.90
2018-08-06T00:20:17.268Z,2.42
2018-08-06T00:22:45.687Z,2.70
2018-08-06T00:25:16.015Z,2.87
2018-08-06T00:27:44.528Z,2.80
2018-08-06T00:30:16.650Z,2.60
2018-08-06T00:32:45.763Z,2.73
2018-08-06T00:35:15.859Z,2.02
2018-08-06T00:37:44.449Z,2.40
2018-08-06T00:40:16.001Z,2.50
2018-08-06T00:42:45.031Z,2.10
2018-08-06T00:45:15.427Z,2.10
2018-08-06T00:47:43.902Z,2.37
2018-08-06T00:50:13.211Z,2.47
2018-08-06T00:52:41.725Z,2.50
2018-08-06T00:55:13.738Z,2.03
2018-08-06T00:57:42.450Z,2.27
2018-08-06T01:00:15.798Z,2.40
2018-08-06T01:02:44.475Z,2.30
2018-08-06T01:05:13.735Z,3.03
2018-08-06T01:07:42.553Z,2.87
2018-08-06T01:10:12.438Z,3.70
2018-08-06T01:12:41.177Z,2.90
2018-08-06T01:15:11.085Z,3.40
2018-08-06T01:17:39.463Z,3.60
2018-08-06T01:20:09.755Z,3.40
2018-08-06T01:22:38.488Z,3.10
2018-08-06T01:25:06.612Z,2.50
2018-08-06T01:27:35.695Z,3.00
2018-08-06T01:30:04.128Z,2.27
2018-08-06T01:32:32.901Z,2.90
2018-08-06T01:35:01.306Z,2.70
2018-08-06T01:37:29.935Z,3.17
2018-08-06T01:39:58.787Z,2.87
2018-08-06T01:42:27.477Z,3.10
2018-08-06T01:44:55.869Z,2.90
2018-08-06T01:47:24.819Z,2.95
2018-08-06T01:49:53.468Z,3.50
2018-08-06T01:52:21.782Z,3.42
2018-08-06T01:54:50.531Z,4.00
2018-08-06T01:57:18.953Z,3.33
2018-08-06T01:59:47.712Z,3.30
2018-08-06T02:02:15.815Z,3.87
2018-08-06T02:04:44.493Z,3.65
2018-08-06T02:07:12.831Z,3.20
2018-08-06T02:09:40.945Z,3.50
2018-08-06T02:12:09.372Z,3.03
2018-08-06T02:14:37.801Z,3.63
2018-08-06T02:17:06.197Z,3.10
2018-08-06T02:19:34.616Z,2.90
2018-08-06T02:22:02.744Z,3.27
2018-08-06T02:24:30.836Z,3.23
2018-08-06T02:26:59.228Z,3.25
2018-08-06T02:29:27.608Z,2.98
2018-08-06T02:31:55.724Z,3.47
2018-08-06T02:34:24.708Z,2.75
2018-08-06T02:36:53.069Z,4.00
2018-08-06T02:39:21.620Z,3.72
2018-08-06T02:41:50.060Z,3.20
2018-08-06T02:44:18.988Z,3.20
2018-08-06T02:46:47.365Z,3.60
2018-08-06T02:49:15.972Z,3.27
2018-08-06T02:51:44.622Z,3.80
2018-08-06T02:54:12.956Z,3.73
2018-08-06T02:56:41.656Z,3.37
2018-08-06T02:59:10.025Z,3.63
2018-08-06T03:01:38.392Z,3.60
2018-08-06T03:04:06.846Z,3.87
2018-08-06T03:06:34.949Z,3.30
2018-08-06T03:09:05.292Z,3.55
2018-08-06T03:11:34.027Z,3.27
2018-08-06T03:14:02.740Z,3.83
2018-08-06T03:16:31.560Z,3.90
2018-08-06T03:18:59.896Z,3.90
2018-08-06T03:21:29.464Z,4.17
2018-08-06T03:23:57.845Z,4.10
2018-08-06T03:26:26.195Z,3.80
2018-08-06T03:28:54.833Z,4.10
2018-08-06T03:31:23.322Z,4.57
2018-08-06T03:33:52.009Z,5.40
2018-08-06T03:36:20.366Z,4.60
2018-08-06T03:38:49.130Z,5.20
2018-08-06T03:41:18.428Z,6.00
2018-08-06T03:43:47.065Z,5.20
2018-08-06T03:46:15.940Z,5.75
2018-08-06T03:48:44.045Z,4.80
2018-08-06T03:51:12.471Z,5.03
2018-08-06T03:53:40.867Z,5.40
2018-08-06T03:56:09.326Z,5.50
2018-08-06T03:58:37.856Z,5.33
2018-08-06T04:01:06.288Z,5.03
2018-08-06T04:03:34.649Z,5.20
2018-08-06T04:06:02.760Z,4.83
2018-08-06T04:08:31.028Z,6.00
2018-08-06T04:10:59.460Z,6.13
2018-08-06T04:13:28.472Z,5.77
2018-08-06T04:15:56.793Z,6.87
2018-08-06T04:18:25.769Z,7.37
2018-08-06T04:20:53.892Z,6.20
2018-08-06T04:23:22.532Z,7.25
2018-08-06T04:25:51.019Z,6.50
2018-08-06T04:28:19.772Z,5.67
2018-08-06T04:30:48.225Z,5.70
2018-08-06T04:33:17.000Z,5.60
2018-08-06T04:35:45.122Z,6.40
2018-08-06T04:38:14.105Z,5.95
2018-08-06T04:40:42.544Z,6.10
2018-08-06T04:43:12.197Z,6.03
2018-08-06T04:45:40.827Z,5.42
2018-08-06T04:48:09.188Z,6.20
2018-08-06T04:50:37.643Z,5.60
2018-08-06T04:53:05.950Z,6.60
2018-08-06T04:55:34.584Z,5.60
2018-08-06T04:58:02.820Z,6.47
2018-08-06T05:00:31.024Z,5.80
2018-08-06T05:02:59.719Z,6.50
2018-08-06T05:05:28.018Z,6.40
2018-08-06T05:07:56.393Z,5.63
2018-08-06T05:10:24.797Z,5.97
2018-08-06T05:12:52.909Z,6.30
2018-08-06T05:15:21.451Z,6.60
2018-08-06T05:17:49.851Z,6.55
2018-08-06T05:20:18.109Z,6.70
2018-08-06T05:22:46.279Z,6.50
2018-08-06T05:25:14.624Z,7.07
2018-08-06T05:27:42.839Z,5.93
2018-08-06T05:30:12.731Z,6.60
2018-08-06T05:32:40.922Z,6.77
2018-08-06T05:35:09.043Z,5.93
2018-08-06T05:37:37.605Z,6.77
2018-08-06T05:40:06.889Z,6.17
2018-08-06T05:42:35.479Z,6.23
2018-08-06T05:45:05.317Z,6.83
2018-08-06T05:47:33.448Z,6.77
2018-08-06T05:50:02.169Z,6.60
2018-08-06T05:52:30.309Z,5.70
2018-08-06T05:54:59.028Z,6.75
2018-08-06T05:57:27.749Z,5.43
2018-08-06T05:59:55.969Z,5.60
2018-08-06T06:02:24.120Z,7.00
2018-08-06T06:04:52.585Z,8.73
2018-08-06T06:07:21.241Z,6.45
2018-08-06T06:09:49.616Z,5.30
2018-08-06T06:12:18.153Z,6.20
2018-08-06T06:14:46.602Z,5.43
2018-08-06T06:17:16.641Z,6.35
2018-08-06T06:19:45.032Z,5.95
2018-08-06T06:22:13.479Z,5.03
2018-08-06T06:24:41.904Z,5.70
2018-08-06T06:27:10.069Z,5.73
2018-08-06T06:29:38.196Z,5.00
2018-08-06T06:32:06.324Z,5.20
2018-08-06T06:34:34.801Z,4.20
2018-08-06T06:37:03.085Z,4.40
2018-08-06T06:39:31.397Z,4.20
2018-08-06T06:41:59.502Z,3.97
2018-08-06T06:44:28.604Z,3.90
2018-08-06T06:46:57.380Z,3.10
2018-08-06T06:49:25.797Z,3.60
2018-08-06T06:51:54.562Z,3.67
2018-08-06T06:54:23.526Z,3.20
2018-08-06T06:56:52.073Z,2.90
2018-08-06T06:59:20.575Z,3.22
2018-08-06T07:01:48.710Z,3.27
2018-08-06T07:04:17.358Z,2.80
2018-08-06T07:06:46.324Z,2.40
2018-08-06T07:09:14.640Z,2.50
2018-08-06T07:11:43.349Z,2.50
2018-08-06T07:14:11.436Z,2.60
2018-08-06T07:16:40.093Z,1.90
2018-08-06T07:19:08.580Z,1.93
2018-08-06T07:21:37.216Z,2.40
2018-08-06T07:24:05.687Z,1.70
2018-08-06T07:26:34.747Z,1.67
2018-08-06T07:29:03.550Z,1.80
2018-08-06T07:31:32.372Z,1.70
2018-08-06T07:34:00.732Z,1.63
2018-08-06T07:36:29.306Z,1.70
2018-08-06T07:38:57.748Z,1.60
2018-08-06T07:41:26.427Z,1.62
2018-08-06T07:43:54.821Z,1.57
2018-08-06T07:46:23.480Z,1.70
2018-08-06T07:48:51.591Z,1.43
2018-08-06T07:51:20.284Z,1.87
2018-08-06T07:53:48.387Z,1.50
2018-08-06T07:56:17.017Z,1.70
2018-08-06T07:58:45.759Z,1.70
2018-08-06T08:01:14.445Z,1.72
2018-08-06T08:03:42.901Z,1.73
2018-08-06T08:06:11.482Z,1.87
2018-08-06T08:08:39.600Z,1.60
2018-08-06T08:11:07.961Z,1.30
2018-08-06T08:13:36.606Z,1.47
2018-08-06T08:16:05.173Z,2.23
2018-08-06T08:18:33.905Z,2.30
2018-08-06T08:21:02.988Z,1.22
2018-08-06T08:23:31.577Z,1.40
2018-08-06T08:25:59.929Z,1.63
2018-08-06T08:28:28.320Z,1.20
2018-08-06T08:30:56.776Z,1.47
2018-08-06T08:33:25.442Z,1.67
2018-08-06T08:35:53.757Z,1.60
2018-08-06T08:38:22.101Z,1.23
2018-08-06T08:40:57.731Z,1.63
2018-08-06T08:43:26.128Z,1.63
2018-08-06T08:45:54.917Z,1.30
2018-08-06T08:48:23.692Z,1.50
2018-08-06T08:50:51.948Z,1.53
2018-08-06T08:53:20.346Z,1.53
2018-08-06T08:55:49.352Z,1.53
2018-08-06T08:58:17.736Z,1.30
2018-08-06T09:00:45.843Z,1.53
2018-08-06T09:03:14.205Z,1.40
2018-08-06T09:05:42.468Z,1.27
2018-08-06T09:08:10.905Z,1.20
2018-08-06T09:10:40.069Z,2.00
2018-08-06T09:13:08.803Z,1.20
2018-08-06T09:15:38.048Z,1.50
2018-08-06T09:18:06.429Z,1.70
2018-08-06T09:20:34.573Z,1.10
2018-08-06T09:23:02.668Z,1.20
2018-08-06T09:25:31.117Z,1.27
2018-08-06T09:27:59.755Z,1.60
2018-08-06T09:30:28.561Z,1.40
2018-08-06T09:32:57.643Z,1.30
2018-08-06T09:35:25.969Z,1.40
2018-08-06T09:37:54.200Z,1.30
2018-08-06T09:40:23.637Z,1.45
2018-08-06T09:42:52.307Z,1.30
2018-08-06T09:45:21.905Z,1.32
2018-08-06T09:47:51.180Z,1.50
2018-08-06T09:50:20.313Z,1.50
2018-08-06T09:52:49.872Z,1.80
2018-08-06T09:55:21.688Z,1.40
2018-08-06T09:57:50.320Z,1.50
2018-08-06T10:00:25.277Z,1.93
2018-08-06T10:03:00.918Z,1.27
2018-08-06T10:05:29.426Z,1.30
2018-08-06T10:07:58.048Z,1.10
2018-08-06T10:10:37.839Z,1.80
2018-08-06T10:13:06.065Z,1.53
2018-08-06T10:15:34.508Z,1.17
2018-08-06T10:18:04.068Z,1.43
2018-08-06T10:20:32.474Z,1.30
2018-08-06T10:23:01.097Z,1.50
2018-08-06T10:25:29.861Z,1.60
2018-08-06T10:27:57.980Z,1.37
2018-08-06T10:30:26.809Z,1.37
2018-08-06T10:35:48.344Z,1.30
2018-08-06T10:38:17.295Z,1.40
2018-08-06T10:40:45.428Z,1.40
2018-08-06T10:43:13.920Z,1.83
2018-08-06T10:45:42.576Z,1.73
2018-08-06T10:48:11.493Z,1.40
2018-08-06T10:53:33.996Z,1.40
2018-08-06T10:56:02.163Z,1.17
2018-08-06T10:58:30.445Z,1.25
2018-08-06T11:00:58.587Z,1.20
2018-08-06T11:03:27.024Z,1.50
2018-08-06T11:05:55.713Z,1.30
2018-08-06T11:08:24.136Z,1.30
2018-08-06T11:13:45.864Z,1.37
2018-08-06T11:16:14.601Z,1.30
2018-08-06T11:18:43.273Z,1.53
2018-08-06T11:21:11.743Z,1.20
2018-08-06T11:23:39.993Z,1.70
2018-08-06T11:26:08.637Z,1.13
2018-08-06T11:28:37.196Z,1.20
2018-08-06T11:31:05.676Z,1.17
2018-08-06T11:33:34.345Z,1.17
2018-08-06T11:36:02.448Z,1.30
2018-08-06T11:38:30.560Z,1.50
2018-08-06T11:40:58.690Z,1.17
2018-08-06T11:43:27.124Z,1.50
2018-08-06T11:45:55.888Z,1.50
2018-08-06T11:48:24.731Z,1.40
2018-08-06T11:50:53.208Z,1.30
2018-08-06T11:53:21.647Z,1.07
2018-08-06T11:55:50.301Z,1.57
2018-08-06T11:58:18.761Z,1.50
2018-08-06T12:00:59.088Z,1.13
2018-08-06T12:03:28.078Z,1.30
2018-08-06T12:05:56.540Z,2.00
2018-08-06T12:08:24.908Z,1.10
2018-08-06T12:10:53.548Z,1.03
2018-08-06T12:13:22.061Z,1.30
2018-08-06T12:15:50.169Z,0.90
2018-08-06T12:18:18.380Z,1.17
2018-08-06T12:20:46.791Z,1.23
2018-08-06T12:23:15.148Z,1.50
2018-08-06T12:25:43.582Z,1.10
2018-08-06T12:28:11.955Z,1.30
2018-08-06T12:30:40.820Z,1.23
2018-08-06T12:33:09.716Z,1.00
2018-08-06T12:35:38.472Z,1.30
2018-08-06T12:38:06.864Z,1.10
2018-08-06T12:40:41.439Z,1.23
2018-08-06T12:43:09.779Z,1.10
2018-08-06T12:45:38.748Z,1.10
2018-08-06T12:48:07.573Z,0.87
2018-08-06T12:50:35.992Z,1.47
2018-08-06T12:53:04.641Z,0.90
2018-08-06T12:55:33.072Z,1.57
2018-08-06T12:58:01.526Z,1.17
2018-08-06T13:00:29.965Z,1.00
2018-08-06T13:02:58.213Z,1.10
2018-08-06T13:05:26.322Z,1.30
2018-08-06T13:07:55.209Z,0.87
2018-08-06T13:10:23.731Z,1.12
2018-08-06T13:12:52.100Z,1.13
2018-08-06T13:15:20.828Z,1.00
2018-08-06T13:17:49.512Z,1.47
2018-08-06T13:20:18.241Z,1.13
2018-08-06T13:22:46.444Z,2.10
2018-08-06T13:25:15.013Z,1.47
2018-08-06T13:27:43.320Z,0.90
2018-08-06T13:30:13.645Z,1.00
2018-08-06T13:32:42.194Z,1.00
2018-08-06T13:35:11.071Z,1.10
2018-08-06T13:37:39.674Z,1.00
2018-08-06T13:40:08.457Z,1.03
2018-08-06T13:42:36.661Z,1.03
2018-08-06T13:45:06.917Z,1.30
2018-08-06T13:47:35.706Z,1.10
2018-08-06T13:50:04.323Z,1.07
2018-08-06T13:52:32.844Z,1.17
2018-08-06T13:55:01.817Z,1.10
2018-08-06T13:57:29.920Z,0.90
2018-08-06T13:59:58.387Z,1.03
2018-08-06T14:02:26.826Z,1.10
2018-08-06T14:04:54.949Z,1.00
2018-08-06T14:07:23.976Z,1.15
2018-08-06T14:09:53.417Z,0.97
2018-08-06T14:12:21.790Z,1.10
2018-08-06T14:14:50.504Z,1.20
2018-08-06T14:17:19.229Z,1.00
2018-08-06T14:19:47.456Z,1.10
2018-08-06T14:22:15.610Z,1.10
2018-08-06T14:24:43.905Z,1.03
2018-08-06T14:27:12.836Z,1.00
2018-08-06T14:29:41.256Z,1.10
2018-08-06T14:32:10.216Z,1.30
2018-08-06T14:34:38.444Z,1.10
2018-08-06T14:37:06.597Z,1.00
2018-08-06T14:39:35.112Z,1.00
2018-08-06T14:42:03.570Z,1.20
2018-08-06T14:44:31.765Z,0.90
2018-08-06T14:47:13.465Z,1.20
2018-08-06T14:49:42.149Z,0.90
2018-08-06T14:52:10.677Z,1.00
2018-08-06T14:55:01.641Z,1.10
2018-08-06T14:57:34.003Z,1.20
2018-08-06T15:02:36.253Z,1.27
2018-08-06T15:05:04.608Z,1.20
2018-08-06T15:07:33.223Z,1.10
2018-08-06T15:12:41.973Z,1.40
2018-08-06T15:17:49.920Z,27.37
2018-08-06T15:20:19.173Z,1.40
2018-08-06T15:22:48.058Z,1.17
2018-08-06T15:25:18.195Z,1.20
2018-08-06T15:27:46.660Z,1.00
2018-08-06T15:30:17.018Z,1.20
2018-08-06T15:32:45.953Z,1.20
2018-08-06T15:35:14.892Z,1.20
2018-08-06T15:37:43.933Z,1.17
2018-08-06T15:40:14.468Z,1.20
2018-08-06T15:42:42.948Z,1.30
2018-08-06T15:45:11.992Z,1.33
2018-08-06T15:47:40.939Z,1.27
2018-08-06T15:50:14.953Z,1.37
2018-08-06T15:52:44.597Z,1.10
2018-08-06T15:55:13.041Z,1.50
2018-08-06T15:57:41.577Z,1.20
2018-08-06T16:03:03.411Z,1.43
2018-08-06T16:05:32.589Z,1.02
2018-08-06T16:08:01.143Z,1.20
2018-08-06T16:10:29.533Z,1.42
2018-08-06T16:12:57.908Z,1.30
2018-08-06T16:15:26.232Z,1.10
2018-08-06T16:17:54.442Z,1.30
2018-08-06T16:20:29.360Z,1.30
2018-08-06T16:22:58.108Z,1.20
2018-08-06T16:25:26.542Z,1.00
2018-08-06T16:27:55.149Z,1.37
2018-08-06T16:30:24.774Z,1.20
2018-08-06T16:32:52.954Z,1.23
2018-08-06T16:35:22.972Z,1.30
2018-08-06T16:37:52.780Z,1.13
2018-08-06T16:40:21.729Z,1.10
2018-08-06T16:42:50.445Z,1.23
2018-08-06T16:45:18.869Z,1.20
2018-08-06T16:48:01.010Z,1.10
2018-08-06T16:50:29.432Z,1.20
2018-08-06T16:52:57.837Z,1.33
2018-08-06T16:55:26.276Z,1.40
2018-08-06T16:57:54.620Z,1.03
2018-08-06T17:00:23.449Z,1.22
2018-08-06T17:02:52.361Z,1.57
2018-08-06T17:05:21.383Z,1.30
2018-08-06T17:07:50.556Z,2.40
2018-08-06T17:10:20.218Z,1.17
2018-08-06T17:12:49.962Z,1.93
2018-08-06T17:15:19.648Z,1.30
2018-08-06T17:17:48.740Z,1.10
2018-08-06T17:20:19.972Z,1.20
2018-08-06T17:22:49.313Z,1.10
2018-08-06T17:25:18.379Z,1.00
2018-08-06T17:27:47.336Z,1.30
2018-08-06T17:30:16.376Z,1.27
2018-08-06T17:32:44.504Z,1.47
2018-08-06T17:35:18.657Z,1.27
2018-08-06T17:37:47.281Z,1.30
2018-08-06T17:40:17.514Z,1.40
2018-08-06T17:42:45.876Z,1.40
2018-08-06T17:45:16.516Z,1.20
2018-08-06T17:47:45.217Z,1.22
2018-08-06T17:50:16.063Z,1.20
2018-08-06T17:52:45.383Z,1.40
2018-08-06T17:55:14.617Z,1.60
2018-08-06T17:57:43.044Z,1.40
2018-08-06T18:00:11.893Z,1.17
2018-08-06T18:02:47.159Z,1.40
2018-08-06T18:05:16.324Z,1.17
2018-08-06T18:07:45.250Z,1.23
2018-08-06T18:10:15.254Z,1.20
2018-08-06T18:12:44.452Z,1.30
2018-08-06T18:15:12.885Z,1.63
2018-08-06T18:17:41.240Z,1.70
2018-08-06T18:20:12.844Z,1.43
2018-08-06T18:22:41.016Z,1.53
2018-08-06T18:25:11.177Z,1.37
2018-08-06T18:27:39.352Z,1.50
2018-08-06T18:30:19.080Z,1.30
2018-08-06T18:32:47.551Z,1.50
2018-08-06T18:35:17.163Z,1.50
2018-08-06T18:37:45.939Z,1.63
2018-08-06T18:40:15.026Z,1.37
2018-08-06T18:42:44.385Z,2.00
2018-08-06T18:45:14.676Z,2.20
2018-08-06T18:47:43.893Z,1.83
2018-08-06T18:50:18.607Z,2.33
2018-08-06T18:52:47.921Z,1.40
2018-08-06T18:55:16.616Z,1.60
2018-08-06T18:57:45.094Z,1.70
2018-08-06T19:00:18.723Z,1.60
2018-08-06T19:02:47.512Z,2.33
2018-08-06T19:05:16.459Z,1.90
2018-08-06T19:07:45.306Z,1.40
2018-08-06T19:10:13.728Z,1.60
2018-08-06T19:12:47.386Z,1.70
2018-08-06T19:15:16.249Z,2.17
2018-08-06T19:17:50.129Z,1.80
2018-08-06T19:20:18.766Z,1.77
2018-08-06T19:22:47.480Z,2.10
2018-08-06T19:25:20.929Z,2.13
2018-08-06T19:27:50.557Z,2.80
2018-08-06T19:30:19.016Z,2.50
2018-08-06T19:32:47.785Z,2.03
2018-08-06T19:35:16.233Z,2.43
2018-08-06T19:37:45.068Z,2.23
2018-08-06T19:40:13.285Z,3.03
2018-08-06T19:42:47.588Z,2.40
2018-08-06T19:45:16.481Z,2.30
2018-08-06T19:47:45.572Z,2.47
2018-08-06T19:50:24.686Z,2.40
2018-08-06T19:52:53.501Z,1.73
2018-08-06T19:55:28.145Z,2.00
2018-08-06T19:57:56.294Z,1.90
2018-08-06T20:00:24.757Z,1.90
2018-08-06T20:02:52.875Z,1.70
2018-08-06T20:05:21.540Z,2.60
2018-08-06T20:07:50.072Z,1.90
2018-08-06T20:10:19.266Z,2.10
2018-08-06T20:12:47.536Z,1.90
2018-08-06T20:15:18.111Z,1.57
2018-08-06T20:17:47.067Z,1.80
2018-08-06T20:20:15.629Z,1.77
2018-08-06T20:22:44.156Z,1.60
2018-08-06T20:25:16.336Z,2.30
2018-08-06T20:27:45.217Z,1.93
2018-08-06T20:30:14.845Z,1.77
2018-08-06T20:32:42.936Z,2.13
2018-08-06T20:35:13.237Z,1.83
2018-08-06T20:37:41.842Z,1.97
2018-08-06T20:40:11.269Z,2.22
2018-08-06T20:42:40.530Z,2.13
2018-08-06T20:45:12.688Z,2.10
2018-08-06T20:47:41.410Z,2.00
2018-08-06T20:50:16.073Z,1.80
2018-08-06T20:52:45.203Z,2.03
2018-08-06T20:55:13.796Z,1.67
2018-08-06T20:57:43.011Z,1.77
2018-08-06T21:00:16.175Z,2.10
2018-08-06T21:02:45.180Z,1.70
2018-08-06T21:05:13.420Z,1.87
2018-08-06T21:07:41.813Z,2.13
2018-08-06T21:10:11.887Z,1.80
2018-08-06T21:12:40.718Z,1.60
2018-08-06T21:15:10.108Z,1.60
2018-08-06T21:17:38.728Z,1.90
2018-08-06T21:20:10.270Z,1.63
2018-08-06T21:22:38.828Z,1.80
2018-08-06T21:25:08.055Z,1.77
2018-08-06T21:27:36.516Z,1.75
2018-08-06T21:30:07.176Z,1.80
2018-08-06T21:32:35.633Z,1.80
2018-08-06T21:35:04.002Z,2.47
2018-08-06T21:37:32.726Z,1.40
2018-08-06T21:40:00.857Z,1.83
2018-08-06T21:42:29.456Z,1.63
2018-08-06T21:44:57.665Z,1.77
2018-08-06T21:47:26.822Z,1.93
2018-08-06T21:49:54.952Z,1.80
2018-08-06T21:52:23.729Z,2.00
2018-08-06T21:54:51.849Z,1.90
2018-08-06T21:57:20.912Z,1.50
2018-08-06T21:59:49.042Z,1.83
2018-08-06T22:02:17.403Z,1.63
2018-08-06T22:04:45.916Z,1.97
2018-08-06T22:07:14.849Z,2.08
2018-08-06T22:09:43.319Z,1.93
2018-08-06T22:12:11.799Z,2.07
2018-08-06T22:14:39.904Z,1.90
2018-08-06T22:17:08.024Z,2.00
2018-08-06T22:19:36.145Z,1.47
2018-08-06T22:22:04.549Z,1.80
2018-08-06T22:24:32.854Z,1.92
2018-08-06T22:27:01.537Z,2.10
2018-08-06T22:29:30.276Z,1.90
2018-08-06T22:31:58.664Z,1.70
2018-08-06T22:34:27.105Z,2.05
2018-08-06T22:36:55.519Z,1.98
2018-08-06T22:39:25.236Z,1.70
2018-08-06T22:41:53.905Z,1.90
2018-08-06T22:44:22.617Z,1.83
2018-08-06T22:46:51.072Z,2.33
2018-08-06T22:49:19.184Z,1.73
2018-08-06T22:51:47.741Z,1.90
2018-08-06T22:54:15.844Z,1.83
2018-08-06T22:56:44.309Z,1.70
2018-08-06T22:59:12.425Z,1.43
2018-08-06T23:01:40.622Z,2.20
2018-08-06T23:04:09.296Z,1.87
2018-08-06T23:06:37.657Z,1.90
2018-08-06T23:09:09.190Z,1.90
2018-08-06T23:11:38.116Z,1.60
2018-08-06T23:14:06.228Z,1.77
2018-08-06T23:16:34.369Z,2.70
2018-08-06T23:19:02.470Z,1.60
2018-08-06T23:21:31.099Z,2.20
2018-08-06T23:23:59.409Z,1.83
2018-08-06T23:26:28.596Z,1.80
2018-08-06T23:28:57.285Z,1.98
2018-08-06T23:31:25.429Z,2.27
2018-08-06T23:33:53.557Z,1.83
2018-08-06T23:36:21.693Z,1.80
2018-08-06T23:38:50.367Z,1.98
2018-08-06T23:41:19.611Z,2.35
2018-08-06T23:43:48.265Z,2.22
2018-08-06T23:46:16.380Z,2.10
2018-08-06T23:48:44.499Z,2.17
2018-08-06T23:51:12.956Z,2.07
2018-08-06T23:53:41.440Z,2.20
2018-08-06T23:56:09.561Z,2.20
2018-08-06T23:58:37.949Z,1.93
